Terminal Aerodrome Forecast
Issued by NWS

Home | Current Version | Previous Version | Text Only | Print | Product List | Glossary On
Versions: 1 2 3 4 5 6 7 8 9 10 11 12 13 14 15 16 17 18 19 20 21 22
788
FTUS43 KSGF 141120
TAFJLN
TAF
KJLN 141120Z 1412/1512 14005KT 5SM -SN OVC050
     FM141400 15006KT 2SM -SN OVC050
     FM141800 20013G18KT P6SM BKN050
     FM142200 20010KT P6SM BKN150
     FM150600 24010KT P6SM OVC050=

USA.gov is the U.S. government's official web portal to all federal, state and local government web resources and services.